Time;durP1;ratioP1;P1;durP2;ratioP2;P2;SDS_P1;SDS_P2;PMS_P1;PMS_P2;Temp;Humidity;BMP_temperature;BMP_pressure;BME280_temperature;BME280_humidity;BME280_pressure;Samples;Min_cycle;Max_cycle;Signal;HPM_P1;HPM_P2
2022/02/06 00:01:42;;;;;;;18.70;6.30;;;;;;;1.21;100.00;99584.31;5026029;28;20478;-81
2022/02/06 00:04:27;;;;;;;16.75;5.40;;;;;;;1.24;100.00;99580.03;5012167;28;20042;-81
2022/02/06 00:07:11;;;;;;;15.05;5.22;;;;;;;1.30;100.00;99572.34;5012734;28;20115;-82
2022/02/06 00:09:57;;;;;;;13.40;5.40;;;;;;;1.40;100.00;99570.72;5026987;28;20057;-81
2022/02/06 00:12:41;;;;;;;10.68;4.65;;;;;;;1.45;100.00;99561.25;5029327;28;20062;-81
2022/02/06 00:15:26;;;;;;;11.63;4.53;;;;;;;1.47;100.00;99554.41;5029279;28;20041;-81
2022/02/06 00:18:12;;;;;;;12.93;4.35;;;;;;;1.60;100.00;99552.78;5029419;28;20049;-81
2022/02/06 00:21:00;;;;;;;15.27;5.72;;;;;;;1.53;100.00;99541.56;5016240;28;20397;-81
2022/02/06 00:23:48;;;;;;;16.90;5.82;;;;;;;1.57;100.00;99530.38;5029106;28;20045;-82
2022/02/06 00:26:41;;;;;;;13.52;4.13;;;;;;;1.66;100.00;99544.19;5001394;28;20129;-81
2022/02/06 00:29:40;;;;;;;10.05;4.68;;;;;;;1.61;100.00;99539.88;5001323;28;20109;-82
2022/02/06 00:32:42;;;;;;;9.85;3.40;;;;;;;1.65;100.00;99540.75;5029092;28;20041;-82
2022/02/06 00:38:27;;;;;;;9.90;4.07;;;;;;;1.68;100.00;99516.69;5028975;28;20054;-81
2022/02/06 00:41:14;;;;;;;8.82;3.80;;;;;;;1.77;100.00;99533.09;5001369;28;20160;-80
2022/02/06 00:44:04;;;;;;;8.77;3.30;;;;;;;1.74;100.00;99519.28;5073247;28;20328;-80
2022/02/06 00:46:48;;;;;;;8.38;3.30;;;;;;;1.75;100.00;99524.47;5014836;28;20046;-80
2022/02/06 00:49:32;;;;;;;10.15;3.50;;;;;;;1.81;100.00;99516.75;5028745;28;20067;-80
2022/02/06 00:52:27;;;;;;;9.15;4.32;;;;;;;1.87;100.00;99500.44;5015466;28;20118;-81
2022/02/06 00:55:12;;;;;;;12.23;4.00;;;;;;;1.93;100.00;99505.63;5015211;28;20127;-80
2022/02/06 00:57:57;;;;;;;8.68;2.83;;;;;;;1.94;100.00;99497.00;5014741;28;20042;-80
2022/02/06 01:00:42;;;;;;;7.30;2.70;;;;;;;1.93;100.00;99484.09;5014618;28;20403;-79
2022/02/06 01:03:26;;;;;;;10.13;2.58;;;;;;;1.92;100.00;99490.09;5014675;28;20054;-80
2022/02/06 01:06:11;;;;;;;7.78;2.60;;;;;;;1.99;100.00;99497.06;5014725;28;20428;-80
2022/02/06 01:08:55;;;;;;;8.10;2.67;;;;;;;2.05;100.00;99490.19;5028474;28;20053;-81
2022/02/06 01:11:39;;;;;;;7.90;3.05;;;;;;;2.10;100.00;99491.06;5015044;28;20041;-80
2022/02/06 01:14:47;;;;;;;5.40;2.80;;;;;;;2.07;100.00;99480.72;5028412;28;20081;-81
2022/02/06 01:17:51;;;;;;;6.90;2.90;;;;;;;2.09;100.00;99476.41;5015055;28;20042;-80
2022/02/06 01:20:41;;;;;;;10.85;3.08;;;;;;;2.12;100.00;99472.13;5014499;28;20050;-81
2022/02/06 01:23:30;;;;;;;11.35;3.47;;;;;;;2.21;100.00;99474.72;5014383;28;20053;-81
2022/02/06 01:26:27;;;;;;;6.88;3.13;;;;;;;2.24;100.00;99472.16;5014012;28;20371;-80
2022/02/06 01:32:07;;;;;;;6.55;2.63;;;;;;;2.27;100.00;99451.50;5015091;28;20103;-80
2022/02/06 01:34:59;;;;;;;5.88;2.38;;;;;;;2.13;100.00;99433.38;5014257;28;20462;-80
2022/02/06 01:37:52;;;;;;;5.95;2.40;;;;;;;2.32;100.00;99445.47;5014746;28;20092;-81
2022/02/06 01:41:01;;;;;;;;;;;;;;;2.28;100.00;99445.47;5028355;28;20427;-81
2022/02/06 01:43:50;;;;;;;5.25;2.47;;;;;;;2.27;100.00;99431.66;5013985;28;19921;-81
2022/02/06 02:05:38;;;;;;;9.40;2.70;;;;;;;2.37;100.00;99386.03;5027574;28;20095;-81
2022/02/06 02:11:38;;;;;;;12.80;3.33;;;;;;;2.34;100.00;99374.00;5027541;28;20046;-80
2022/02/06 02:15:04;;;;;;;5.22;2.35;;;;;;;2.24;100.00;99343.81;5014243;28;20074;-81
2022/02/06 02:23:50;;;;;;;3.80;2.20;;;;;;;2.33;100.00;99341.22;5027276;28;20053;-81
2022/02/06 02:30:15;;;;;;;5.60;2.15;;;;;;;2.41;100.00;99341.25;5027340;28;20046;-80
2022/02/06 02:33:07;;;;;;;5.97;2.20;;;;;;;2.50;100.00;99338.66;5013634;28;20056;-81
2022/02/06 02:47:46;;;;;;;5.32;2.50;;;;;;;2.55;100.00;99329.16;5013753;28;20038;-81
2022/02/06 02:50:34;;;;;;;11.18;5.43;;;;;;;2.59;100.00;99327.44;5012880;28;20090;-81
2022/02/06 02:53:27;;;;;;;37.47;19.73;;;;;;;2.63;100.00;99326.56;4999277;28;20034;-81
2022/02/06 02:56:26;;;;;;;15.35;8.10;;;;;;;2.73;100.00;99317.09;5012759;28;20058;-82
2022/02/06 02:59:28;;;;;;;14.45;8.27;;;;;;;2.66;100.00;99317.97;5026943;28;20049;-81
2022/02/06 03:02:12;;;;;;;11.02;7.25;;;;;;;2.65;100.00;99300.72;5026800;28;20464;-81
2022/02/06 03:04:59;;;;;;;7.35;3.45;;;;;;;2.74;100.00;99303.31;5012569;28;20367;-82
2022/02/06 03:07:43;;;;;;;5.15;2.33;;;;;;;2.72;100.00;99308.47;5012733;28;20046;-82
2022/02/06 03:10:27;;;;;;;5.68;2.30;;;;;;;2.78;100.00;99295.53;5012667;28;20443;-81
2022/02/06 03:13:15;;;;;;;3.90;1.90;;;;;;;2.71;100.00;99292.97;5026717;28;20038;-82
2022/02/06 03:16:16;;;;;;;5.90;2.17;;;;;;;2.81;100.00;99279.16;5026700;28;20042;-82
2022/02/06 03:21:52;;;;;;;5.55;1.92;;;;;;;2.75;100.00;99273.97;5012569;28;20061;-82
2022/02/06 03:24:42;;;;;;;5.38;2.03;;;;;;;2.75;100.00;99261.06;5026501;28;20042;-82
2022/02/06 03:27:27;;;;;;;6.60;2.20;;;;;;;2.67;100.00;99250.75;5026436;28;20393;-82
2022/02/06 03:30:11;;;;;;;4.38;1.73;;;;;;;2.76;100.00;99249.84;5013132;28;20066;-82
2022/02/06 03:32:56;;;;;;;7.32;2.00;;;;;;;2.70;100.00;99242.13;5013232;28;20428;-82
2022/02/06 03:35:42;;;;;;;6.65;2.15;;;;;;;2.80;100.00;99247.25;5026405;28;20045;-81
2022/02/06 03:38:27;;;;;;;3.97;1.85;;;;;;;2.63;100.00;99235.22;5026222;28;20042;-81
2022/02/06 03:41:13;;;;;;;4.53;1.80;;;;;;;2.70;100.00;99236.94;5026405;28;20050;-81
2022/02/06 03:44:07;;;;;;;3.47;1.67;;;;;;;2.65;100.00;99229.19;5026285;28;20046;-81
2022/02/06 03:47:01;;;;;;;;;;;;;;;2.66;100.00;99228.31;5016221;28;20038;-81
2022/02/06 03:52:45;;;;;;;10.05;2.33;;;;;;;2.73;100.00;99221.38;5029733;28;20070;-81
2022/02/06 03:55:32;;;;;;;7.35;2.05;;;;;;;2.62;100.00;99223.16;5029326;28;20448;-81
2022/02/06 03:58:17;;;;;;;3.72;1.83;;;;;;;2.58;100.00;99193.88;5016361;28;20410;-80
2022/02/06 04:01:01;;;;;;;3.72;1.45;;;;;;;2.62;100.00;99199.88;5001766;28;20333;-81
2022/02/06 04:03:45;;;;;;;2.70;1.20;;;;;;;2.56;100.00;99191.25;5016479;28;20050;-81
2022/02/06 04:06:30;;;;;;;4.32;1.60;;;;;;;2.56;100.00;99191.25;5001824;28;20038;-80
2022/02/06 04:09:19;;;;;;;6.53;2.20;;;;;;;2.51;100.00;99176.66;5015455;28;20069;-81
2022/02/06 04:12:05;;;;;;;2.63;1.35;;;;;;;2.66;100.00;99176.59;5029345;28;20444;-81
2022/02/06 04:15:02;;;;;;;6.53;2.00;;;;;;;2.58;100.00;99170.59;5016041;28;20425;-81
2022/02/06 04:17:55;;;;;;;4.05;1.83;;;;;;;2.55;100.00;99168.00;5015287;28;20038;-81
2022/02/06 04:20:40;;;;;;;6.30;1.73;;;;;;;2.63;100.00;99165.41;5029176;28;20053;-82
2022/02/06 04:23:25;;;;;;;3.40;1.30;;;;;;;2.64;100.00;99147.31;5029087;28;20042;-81
2022/02/06 04:26:10;;;;;;;3.63;1.67;;;;;;;2.78;100.00;99160.19;5029033;28;20411;-83
2022/02/06 04:28:55;;;;;;;4.40;2.00;;;;;;;2.79;100.00;99147.25;5016129;28;20084;-82
2022/02/06 04:31:41;;;;;;;4.15;1.75;;;;;;;2.87;100.00;99143.78;5001308;28;20444;-82
2022/02/06 04:34:28;;;;;;;6.40;2.60;;;;;;;2.93;100.00;99144.59;5028963;28;20038;-81
2022/02/06 04:37:28;;;;;;;6.50;1.45;;;;;;;2.88;100.00;99132.53;5028884;28;20045;-81
2022/02/06 04:49:55;;;;;;;5.70;1.92;;;;;;;2.90;100.00;99095.47;5028793;28;20041;-82
2022/02/06 04:55:48;;;;;;;4.50;1.50;;;;;;;2.96;100.00;99094.56;5015092;28;20049;-82
2022/02/06 05:11:05;;;;;;;4.30;1.90;;;;;;;2.99;100.00;99072.13;5015206;28;20046;-82
2022/02/06 05:31:17;;;;;;;4.95;1.30;;;;;;;3.06;100.00;99035.88;5028106;28;20355;-82
2022/02/06 05:34:02;;;;;;;4.85;1.70;;;;;;;3.10;100.00;99037.56;5028156;28;20038;-82
2022/02/06 05:36:48;;;;;;;4.82;1.35;;;;;;;3.18;100.00;99044.38;5028019;28;20383;-82
2022/02/06 05:39:32;;;;;;;2.78;1.30;;;;;;;3.19;100.00;99030.59;5014764;28;20359;-82
2022/02/06 05:42:20;;;;;;;4.10;1.60;;;;;;;3.10;100.00;99041.00;5028141;28;20069;-82
2022/02/06 05:45:05;;;;;;;3.72;2.05;;;;;;;3.13;100.00;99034.94;5014828;28;20046;-82
2022/02/06 05:47:51;;;;;;;4.03;1.40;;;;;;;3.24;100.00;99041.75;5027872;28;20049;-82
2022/02/06 05:50:39;;;;;;;2.75;1.40;;;;;;;3.15;100.00;99025.44;5014553;28;20042;-82
2022/02/06 05:53:23;;;;;;;4.10;1.55;;;;;;;3.22;100.00;99020.22;5013870;28;20058;-83
2022/02/06 05:56:08;;;;;;;8.23;1.55;;;;;;;3.23;100.00;99031.41;5027441;28;20123;-82
2022/02/06 05:58:53;;;;;;;2.95;1.02;;;;;;;3.21;100.00;99015.03;5013830;28;20076;-82
2022/02/06 06:01:37;;;;;;;3.70;1.75;;;;;;;3.15;100.00;99010.78;4999855;28;20046;-82
2022/02/06 06:04:21;;;;;;;2.50;0.95;;;;;;;3.28;100.00;99015.00;5013466;28;20387;-81
2022/02/06 06:07:06;;;;;;;5.45;1.73;;;;;;;3.27;100.00;99008.06;5013090;28;20042;-82
2022/02/06 06:09:51;;;;;;;3.90;2.35;;;;;;;3.32;100.00;99010.66;5013574;28;20062;-83
2022/02/06 06:12:36;;;;;;;5.70;2.10;;;;;;;3.20;100.00;98998.66;4999830;28;20046;-83
2022/02/06 06:15:20;;;;;;;3.38;2.50;;;;;;;3.31;100.00;98993.38;4999889;28;20046;-82
2022/02/06 06:18:08;;;;;;;5.70;2.55;;;;;;;3.30;100.00;98989.06;5027467;28;20042;-83
2022/02/06 06:20:53;;;;;;;2.47;1.38;;;;;;;3.36;100.00;98996.78;5014178;28;20499;-83
2022/02/06 06:23:43;;;;;;;3.40;1.40;;;;;;;3.32;100.00;98987.34;5013357;28;20042;-83
2022/02/06 06:26:29;;;;;;;5.82;1.40;;;;;;;3.38;100.00;98989.00;5013242;28;20046;-82
2022/02/06 06:29:14;;;;;;;7.65;1.90;;;;;;;3.34;100.00;98987.31;5027007;28;20042;-82
2022/02/06 06:31:58;;;;;;;2.95;1.42;;;;;;;3.36;100.00;98989.03;5013632;28;20121;-83
2022/02/06 06:34:43;;;;;;;2.63;1.17;;;;;;;3.28;100.00;98976.16;5026686;28;20440;-81
2022/02/06 06:37:27;;;;;;;5.32;2.05;;;;;;;3.37;100.00;98980.38;5026623;28;20118;-82
2022/02/06 06:40:12;;;;;;;2.95;1.33;;;;;;;3.43;100.00;98974.28;5027081;28;20042;-83
2022/02/06 06:42:57;;;;;;;1.73;1.05;;;;;;;3.37;100.00;98974.34;4999397;28;20042;-82
2022/02/06 06:45:43;;;;;;;7.75;1.75;;;;;;;3.42;100.00;98975.19;5013234;28;20070;-82
2022/02/06 06:48:27;;;;;;;2.85;1.13;;;;;;;3.43;100.00;98975.16;5014119;28;20054;-82
2022/02/06 06:51:12;;;;;;;3.58;1.33;;;;;;;3.38;100.00;98965.69;5027495;28;20056;-83
2022/02/06 06:53:57;;;;;;;3.33;1.73;;;;;;;3.48;100.00;98967.34;4999692;28;20052;-83
2022/02/06 06:56:50;;;;;;;2.47;1.50;;;;;;;3.42;100.00;98965.69;4999171;28;20053;-83
2022/02/06 07:05:09;;;;;;;5.15;1.23;;;;;;;3.46;100.00;98964.75;5027112;28;20065;-83
2022/02/06 07:07:56;;;;;;;8.98;4.28;;;;;;;3.53;100.00;98955.22;5026752;28;20456;-83
2022/02/06 07:10:40;;;;;;;3.92;1.10;;;;;;;3.41;100.00;98956.22;5027225;28;20049;-83
2022/02/06 07:13:24;;;;;;;5.32;1.40;;;;;;;3.47;100.00;98945.75;5013477;28;20046;-83
2022/02/06 07:16:10;;;;;;;3.50;1.10;;;;;;;3.55;100.00;98960.38;5013949;28;20046;-82
2022/02/06 07:18:54;;;;;;;3.90;1.48;;;;;;;3.48;100.00;98941.47;4998224;28;20071;-83
2022/02/06 07:21:40;;;;;;;3.67;1.30;;;;;;;3.63;100.00;98949.06;5012670;28;20049;-83
2022/02/06 07:24:28;;;;;;;3.33;0.95;;;;;;;3.55;100.00;98937.09;5026539;28;20038;-83
2022/02/06 07:27:26;;;;;;;1.55;1.05;;;;;;;3.63;100.00;98932.66;5013428;28;20500;-82
2022/02/06 07:30:12;;;;;;;2.30;1.13;;;;;;;3.56;100.00;98946.56;5012970;28;20042;-84
2022/02/06 07:32:57;;;;;;;5.55;1.40;;;;;;;3.59;100.00;98929.25;5013684;28;20091;-83
2022/02/06 07:35:41;;;;;;;3.40;1.45;;;;;;;3.63;100.00;98937.84;4998761;28;20053;-82
2022/02/06 07:38:25;;;;;;;4.53;1.38;;;;;;;3.66;100.00;98940.41;5026740;28;20141;-84
2022/02/06 07:41:10;;;;;;;3.35;2.03;;;;;;;3.72;100.00;98923.06;4999224;28;20050;-83
2022/02/06 07:43:55;;;;;;;6.43;2.20;;;;;;;3.67;100.00;98922.28;5013114;28;20428;-83
2022/02/06 07:46:48;;;;;;;2.38;1.63;;;;;;;3.70;100.00;98917.03;5012879;28;20045;-83
2022/02/06 07:49:34;;;;;;;4.85;1.02;;;;;;;3.83;100.00;98909.97;5026821;28;20113;-81
2022/02/06 07:52:21;;;;;;;1.65;0.63;;;;;;;3.72;100.00;98896.31;5026258;28;20057;-83
2022/02/06 07:55:07;;;;;;;1.25;0.82;;;;;;;3.71;100.00;98900.63;5013279;28;20444;-83
2022/02/06 07:57:51;;;;;;;2.88;1.10;;;;;;;3.74;100.00;98907.50;5026204;28;20371;-84
2022/02/06 08:00:36;;;;;;;3.03;0.90;;;;;;;3.80;100.00;98907.41;5026121;28;20057;-82
2022/02/06 08:03:20;;;;;;;2.75;1.80;;;;;;;3.69;100.00;98893.75;5013168;28;20096;-83
2022/02/06 08:06:05;;;;;;;5.70;2.60;;;;;;;3.74;100.00;98882.47;5012093;28;20407;-83
2022/02/06 08:08:49;;;;;;;3.45;1.70;;;;;;;3.71;100.00;98884.25;5026579;28;20046;-82
2022/02/06 08:23:09;;;;;;;4.90;1.50;;;;;;;4.09;100.00;98860.41;5134765;27;20394;-83
2022/02/06 08:25:53;;;;;;;4.40;2.05;;;;;;;4.06;100.00;98854.41;5104849;28;20043;-83
2022/02/06 08:28:38;;;;;;;4.10;2.22;;;;;;;3.98;100.00;98862.28;5119580;28;20047;-83
2022/02/06 08:31:23;;;;;;;4.03;1.17;;;;;;;4.07;100.00;98853.56;5119421;28;20073;-80
2022/02/06 08:34:08;;;;;;;2.70;0.98;;;;;;;4.01;100.00;98857.06;5119101;28;20441;-81
2022/02/06 08:36:52;;;;;;;4.10;1.90;;;;;;;3.94;100.00;98843.34;5116178;28;20117;-82
2022/02/06 08:39:39;;;;;;;5.13;1.60;;;;;;;3.97;100.00;98834.69;5134018;28;20051;-82
2022/02/06 08:42:24;;;;;;;6.57;2.55;;;;;;;3.99;100.00;98831.16;5118945;28;20122;-82
2022/02/06 08:45:11;;;;;;;4.22;2.00;;;;;;;3.99;100.00;98831.16;5134251;28;20054;-82
2022/02/06 08:47:56;;;;;;;10.00;4.63;;;;;;;4.03;100.00;98833.72;5119090;28;20039;-82
2022/02/06 08:50:41;;;;;;;7.28;3.40;;;;;;;4.02;100.00;98819.91;5118489;28;20409;-81
2022/02/06 08:53:25;;;;;;;11.15;4.68;;;;;;;4.03;100.00;98805.22;5119018;28;20039;-80
2022/02/06 08:56:09;;;;;;;5.85;2.83;;;;;;;4.10;100.00;98818.06;5101444;28;20056;-81
2022/02/06 08:58:54;;;;;;;5.63;2.72;;;;;;;4.17;100.00;98818.84;5118701;28;20040;-81
2022/02/06 09:01:39;;;;;;;7.22;2.72;;;;;;;4.21;100.00;98820.50;5118661;28;20052;-81
2022/02/06 09:04:23;;;;;;;7.07;2.38;;;;;;;4.15;100.00;98812.81;5118915;28;20043;-82
2022/02/06 09:07:08;;;;;;;10.27;5.70;;;;;;;4.25;100.00;98816.13;5133762;28;20416;-83
2022/02/06 09:09:58;;;;;;;11.55;7.85;;;;;;;4.26;100.00;98803.16;5118338;28;20043;-83
2022/02/06 09:12:49;;;;;;;4.97;3.03;;;;;;;4.29;100.00;98808.28;5118450;28;20036;-83
2022/02/06 09:15:34;;;;;;;27.02;15.75;;;;;;;4.28;100.00;98806.56;5115507;28;20051;-84
2022/02/06 09:18:18;;;;;;;8.75;4.07;;;;;;;4.35;100.00;98807.31;5118042;28;20047;-81
2022/02/06 09:21:02;;;;;;;7.45;2.90;;;;;;;4.40;100.00;98798.59;5133579;28;20055;-82
2022/02/06 09:23:47;;;;;;;9.75;4.00;;;;;;;4.38;100.00;98789.13;5106278;28;20042;-84
2022/02/06 09:26:34;;;;;;;6.53;2.85;;;;;;;4.39;100.00;98804.66;5104376;28;20055;-84
2022/02/06 09:29:19;;;;;;;5.75;2.65;;;;;;;4.39;100.00;98781.34;5104816;28;20405;-82
2022/02/06 09:37:41;;;;;;;5.55;2.50;;;;;;;4.36;100.00;98783.13;5103973;28;20407;-83
2022/02/06 09:40:27;;;;;;;22.90;8.98;;;;;;;4.26;100.00;98773.75;5104574;28;20040;-82
2022/02/06 09:43:13;;;;;;;6.07;3.22;;;;;;;4.30;100.00;98780.63;5104037;28;20368;-82
2022/02/06 09:46:03;;;;;;;10.77;5.25;;;;;;;4.28;100.00;98769.41;5104490;28;20356;-82
2022/02/06 09:48:50;;;;;;;21.30;14.52;;;;;;;4.40;100.00;98766.63;5119536;28;20043;-83
2022/02/06 09:51:35;;;;;;;9.40;5.18;;;;;;;4.40;100.00;98764.03;5104097;28;20485;-84
2022/02/06 09:54:22;;;;;;;7.53;4.30;;;;;;;4.48;100.00;98769.09;5103772;28;20444;-83
2022/02/06 09:57:11;;;;;;;7.53;3.55;;;;;;;4.46;100.00;98763.94;5103836;28;20039;-84
2022/02/06 09:59:58;;;;;;;4.25;2.30;;;;;;;4.44;100.00;98756.16;5104323;28;20427;-83
2022/02/06 10:02:47;;;;;;;7.80;3.95;;;;;;;4.58;100.00;98758.56;5103788;28;20047;-82
2022/02/06 10:05:35;;;;;;;9.55;4.60;;;;;;;4.60;100.00;98755.91;5089462;28;20051;-82
2022/02/06 10:08:31;;;;;;;6.90;3.65;;;;;;;4.59;100.00;98736.06;5103812;28;20073;-82
2022/02/06 10:11:18;;;;;;;5.00;2.65;;;;;;;4.59;100.00;98738.66;5072372;28;20040;-83
2022/02/06 10:14:03;;;;;;;7.18;3.30;;;;;;;4.62;100.00;98728.22;5103636;28;20424;-83
2022/02/06 10:16:50;;;;;;;7.05;2.33;;;;;;;4.60;100.00;98724.78;5118758;28;20421;-83
2022/02/06 10:19:37;;;;;;;14.38;7.07;;;;;;;4.53;100.00;98703.31;5118832;28;20039;-83
2022/02/06 10:22:26;;;;;;;14.80;9.35;;;;;;;4.69;100.00;98709.06;5103195;28;20056;-83
2022/02/06 10:25:11;;;;;;;12.50;8.57;;;;;;;4.67;100.00;98716.84;5118268;28;20040;-83
2022/02/06 10:28:09;;;;;;;12.25;9.68;;;;;;;4.68;100.00;98709.97;5103206;28;20043;-83
2022/02/06 10:30:57;;;;;;;7.63;5.70;;;;;;;4.69;100.00;98691.75;5103026;28;20394;-83
2022/02/06 10:33:44;;;;;;;11.20;6.57;;;;;;;4.66;100.00;98704.78;5103131;28;20040;-82
2022/02/06 10:36:35;;;;;;;7.40;5.32;;;;;;;4.63;100.00;98678.91;5088578;28;20050;-82
2022/02/06 10:39:23;;;;;;;12.00;10.50;;;;;;;4.63;100.00;98678.91;5089384;28;20055;-83
2022/02/06 10:42:23;;;;;;;16.38;14.68;;;;;;;4.69;100.00;98690.91;5117210;28;20438;-84
2022/02/06 10:45:13;;;;;;;12.15;5.95;;;;;;;4.66;100.00;98678.00;5103030;28;20036;-83
2022/02/06 10:47:57;;;;;;;12.82;4.63;;;;;;;4.72;100.00;98674.44;5102469;28;20498;-84
2022/02/06 10:50:42;;;;;;;8.07;2.92;;;;;;;4.68;100.00;98669.31;5102579;28;20117;-82
2022/02/06 10:53:27;;;;;;;7.65;3.33;;;;;;;4.77;100.00;98650.09;5102497;28;20040;-82
2022/02/06 10:56:12;;;;;;;42.25;16.42;;;;;;;4.82;100.00;98658.66;5087331;28;20040;-83
2022/02/06 10:59:00;;;;;;;173.02;57.80;;;;;;;4.73;100.00;98653.63;5111068;28;20119;-83
2022/02/06 11:01:45;;;;;;;275.20;82.97;;;;;;;4.75;100.00;98638.91;5112108;28;20047;-83
2022/02/06 11:04:32;;;;;;;298.95;87.13;;;;;;;4.85;100.00;98632.63;5114141;28;20036;-83
2022/02/06 11:07:19;;;;;;;203.38;62.20;;;;;;;4.91;100.00;98627.31;5100114;28;20468;-82
2022/02/06 11:10:10;;;;;;;92.53;30.23;;;;;;;4.91;100.00;98637.72;5129307;27;20078;-82
2022/02/06 11:12:57;;;;;;;256.10;82.43;;;;;;;4.98;100.00;98627.19;5101713;28;20040;-82
2022/02/06 11:15:46;;;;;;;87.68;29.02;;;;;;;5.01;100.00;98608.97;5117712;28;20047;-83
2022/02/06 11:18:40;;;;;;;113.70;34.92;;;;;;;5.08;100.00;98614.00;5117498;28;20105;-82
2022/02/06 11:21:25;;;;;;;36.58;13.63;;;;;;;5.21;100.00;98599.00;5087788;28;20071;-83
2022/02/06 11:24:21;;;;;;;42.28;15.80;;;;;;;5.32;100.00;98609.13;5085236;28;20192;-84
2022/02/06 11:27:06;;;;;;;42.42;17.20;;;;;;;5.42;100.00;98599.38;5102152;28;20051;-82
2022/02/06 11:29:52;;;;;;;18.83;8.48;;;;;;;5.51;100.00;98593.97;5113700;28;20047;-82
2022/02/06 11:32:39;;;;;;;19.23;8.52;;;;;;;5.63;100.00;98585.91;5102399;28;20422;-84
2022/02/06 11:35:25;;;;;;;7.90;3.97;;;;;;;5.75;100.00;98575.22;5087597;28;20044;-82
2022/02/06 11:45:19;;;;;;;9.07;4.43;;;;;;;5.85;100.00;98575.84;5098753;28;20058;-83
2022/02/06 11:48:07;;;;;;;4.38;2.67;;;;;;;5.82;100.00;98568.97;5101669;28;20119;-83
2022/02/06 11:50:54;;;;;;;4.95;2.38;;;;;;;5.85;100.00;98558.50;5116578;28;20118;-83
2022/02/06 11:53:39;;;;;;;3.90;2.40;;;;;;;5.79;100.00;98548.25;5099040;28;20051;-82
2022/02/06 11:56:29;;;;;;;2.40;1.50;;;;;;;5.84;100.00;98542.91;5101673;28;20394;-83
2022/02/06 11:59:14;;;;;;;2.20;1.40;;;;;;;5.84;100.00;98532.53;5116959;28;20050;-83
2022/02/06 12:02:25;;;;;;;3.40;1.48;;;;;;;5.98;100.00;98533.06;5102011;28;20043;-83
2022/02/06 12:05:23;;;;;;;2.88;1.70;;;;;;;6.04;100.00;98506.03;5101535;28;20050;-83
2022/02/06 12:08:10;;;;;;;2.20;1.10;;;;;;;6.22;100.00;98508.13;5102066;28;20043;-82
2022/02/06 12:10:58;;;;;;;2.60;1.40;;;;;;;6.08;100.00;98503.31;5087527;28;20043;-84
2022/02/06 12:13:42;;;;;;;3.03;1.10;;;;;;;6.19;100.00;98499.56;5087396;28;20417;-83
2022/02/06 12:16:29;;;;;;;2.08;1.15;;;;;;;6.11;100.00;98492.00;5102068;28;20031;-84
2022/02/06 12:19:30;;;;;;;1.27;1.00;;;;;;;6.17;100.00;98509.16;5101561;28;20118;-83
2022/02/06 12:22:26;;;;;;;2.75;1.40;;;;;;;6.08;100.00;98516.31;5087235;28;20055;-84
2022/02/06 12:25:20;;;;;;;3.53;1.33;;;;;;;6.01;100.00;98487.91;5116639;28;20040;-84
2022/02/06 12:28:12;;;;;;;1.30;0.98;;;;;;;6.10;100.00;98505.88;5101332;28;20036;-83
2022/02/06 12:31:14;;;;;;;3.58;1.85;;;;;;;6.06;100.00;98505.09;5101294;28;20035;-84
2022/02/06 12:37:08;;;;;;;3.72;1.73;;;;;;;5.94;100.00;98489.00;5101290;28;20131;-84
2022/02/06 12:39:57;;;;;;;3.17;1.27;;;;;;;5.94;100.00;98484.63;5101222;28;20152;-84
2022/02/06 12:42:43;;;;;;;2.80;0.93;;;;;;;6.03;100.00;98483.53;5101716;28;20078;-83
2022/02/06 12:45:29;;;;;;;2.88;1.10;;;;;;;6.04;100.00;98477.44;5101112;28;20035;-83
2022/02/06 12:48:16;;;;;;;2.00;0.95;;;;;;;6.05;100.00;98463.56;5101653;28;20074;-81
2022/02/06 12:51:05;;;;;;;3.30;1.38;;;;;;;5.97;100.00;98465.50;5101595;28;20138;-83
2022/02/06 12:54:01;;;;;;;3.50;1.73;;;;;;;5.99;100.00;98453.34;5086732;28;20065;-85
2022/02/06 12:56:46;;;;;;;3.95;1.75;;;;;;;5.92;100.00;98431.84;5115962;28;20105;-83
2022/02/06 12:59:32;;;;;;;6.78;3.08;;;;;;;6.06;100.00;98426.28;5104573;28;20053;-83
2022/02/06 13:02:21;;;;;;;2.35;1.60;;;;;;;6.17;100.00;98400.81;5119869;28;20104;-82
2022/02/06 13:05:13;;;;;;;4.15;1.73;;;;;;;6.22;100.00;98418.88;5090407;28;20334;-85
2022/02/06 13:07:59;;;;;;;6.15;2.38;;;;;;;6.20;100.00;98403.31;5120441;28;20043;-83
2022/02/06 13:11:01;;;;;;;3.45;2.03;;;;;;;6.25;100.00;98414.44;5104754;28;20040;-83
2022/02/06 13:14:26;;;;;;;4.22;2.15;;;;;;;6.37;100.00;98391.56;5090290;28;20039;-83
2022/02/06 13:17:13;;;;;;;6.00;2.80;;;;;;;6.31;100.00;98413.41;5119581;28;20122;-83
2022/02/06 13:20:09;;;;;;;4.38;2.20;;;;;;;6.30;100.00;98394.38;5104895;28;20087;-84
2022/02/06 13:23:15;;;;;;;5.47;2.30;;;;;;;6.27;100.00;98414.38;5104196;28;20047;-83
2022/02/06 13:26:14;;;;;;;9.90;6.03;;;;;;;6.23;100.00;98407.56;5119412;28;20118;-83
2022/02/06 13:29:20;;;;;;;15.80;12.00;;;;;;;6.27;100.00;98398.78;5119368;28;20048;-86
2022/02/06 13:32:57;;;;;;;15.07;11.73;;;;;;;6.28;100.00;98390.94;5119204;28;20035;-83
2022/02/06 13:35:52;;;;;;;11.57;8.70;;;;;;;6.26;100.00;98378.88;5104267;28;20119;-84
2022/02/06 13:38:37;;;;;;;11.00;8.23;;;;;;;6.26;100.00;98360.69;5119720;28;20059;-83
2022/02/06 13:41:26;;;;;;;8.10;5.95;;;;;;;6.35;100.00;98368.22;5089729;28;20047;-83
2022/02/06 13:44:14;;;;;;;10.73;8.35;;;;;;;6.35;100.00;98354.34;5089939;28;20058;-85
2022/02/06 13:47:00;;;;;;;8.98;5.32;;;;;;;6.49;100.00;98355.59;5103863;28;20048;-83
2022/02/06 13:49:49;;;;;;;10.45;7.63;;;;;;;6.39;100.00;98353.34;5089752;28;20051;-84
2022/02/06 13:52:34;;;;;;;6.90;4.53;;;;;;;6.42;100.00;98346.31;5103681;28;20114;-83
2022/02/06 13:55:21;;;;;;;6.43;3.05;;;;;;;6.41;100.00;98338.56;5103847;28;20411;-83
2022/02/06 13:58:12;;;;;;;13.70;5.65;;;;;;;6.45;100.00;98353.16;5089677;28;20048;-84
2022/02/06 14:01:08;;;;;;;5.15;2.70;;;;;;;6.47;100.00;98340.97;5103645;28;20399;-84
2022/02/06 14:03:52;;;;;;;3.92;2.08;;;;;;;6.46;100.00;98334.06;5103835;28;20044;-84
2022/02/06 14:06:41;;;;;;;3.60;2.10;;;;;;;6.49;100.00;98321.78;5103701;28;20043;-83
2022/02/06 14:10:08;;;;;;;4.38;2.15;;;;;;;6.47;100.00;98321.00;5104210;28;20047;-83
2022/02/06 14:12:51;;;;;;;4.43;1.85;;;;;;;6.55;100.00;98302.53;5118762;28;20105;-85
2022/02/06 14:15:35;;;;;;;3.90;1.77;;;;;;;6.61;100.00;98298.91;5086486;28;20143;-84
2022/02/06 14:18:22;;;;;;;5.38;1.73;;;;;;;6.49;100.00;98297.53;5100658;28;20051;-84
2022/02/06 14:21:06;;;;;;;5.03;1.70;;;;;;;6.57;100.00;98295.56;5088879;28;20055;-84
2022/02/06 14:24:05;;;;;;;5.03;2.17;;;;;;;6.52;100.00;98289.63;5103425;28;20039;-84
2022/02/06 14:27:03;;;;;;;4.53;2.15;;;;;;;6.44;100.00;98286.44;5089159;28;20044;-83
2022/02/06 14:29:58;;;;;;;5.15;2.00;;;;;;;6.47;100.00;98273.34;5102767;28;20039;-85
2022/02/06 14:33:01;;;;;;;5.07;1.73;;;;;;;6.43;100.00;98272.56;5117910;28;20078;-84
2022/02/06 14:35:57;;;;;;;3.55;1.42;;;;;;;6.48;100.00;98260.28;5103108;28;20032;-85
2022/02/06 14:38:51;;;;;;;4.97;1.95;;;;;;;6.48;100.00;98249.88;5102849;28;20091;-84
2022/02/06 14:41:49;;;;;;;4.15;2.08;;;;;;;6.47;100.00;98234.34;5088517;28;20086;-85
2022/02/06 14:44:34;;;;;;;5.95;2.63;;;;;;;6.39;100.00;98223.31;5102159;28;20051;-83
2022/02/06 14:47:18;;;;;;;5.63;2.60;;;;;;;6.38;100.00;98213.84;5116100;28;20039;-84
2022/02/06 14:50:17;;;;;;;7.82;2.60;;;;;;;6.39;100.00;98221.56;5086791;28;20040;-84
2022/02/06 14:53:02;;;;;;;6.72;1.83;;;;;;;6.42;100.00;98224.06;5087391;28;20044;-84
2022/02/06 14:55:50;;;;;;;5.25;2.17;;;;;;;6.42;100.00;98224.06;5101689;28;20399;-83
2022/02/06 14:58:35;;;;;;;5.75;2.70;;;;;;;6.34;100.00;98220.88;5101500;28;20032;-85
2022/02/06 15:01:20;;;;;;;6.40;2.65;;;;;;;6.30;100.00;98214.06;5086980;28;20040;-84
2022/02/06 15:04:04;;;;;;;7.05;3.13;;;;;;;6.31;100.00;98213.19;5102434;28;20058;-84
2022/02/06 15:06:48;;;;;;;9.40;3.63;;;;;;;6.31;100.00;98195.81;5088581;28;20035;-84
2022/02/06 15:09:34;;;;;;;8.50;3.63;;;;;;;6.27;100.00;98189.03;5102853;28;20092;-84
2022/02/06 15:12:18;;;;;;;4.70;2.50;;;;;;;6.25;100.00;98175.22;5088073;28;20352;-84
2022/02/06 15:15:04;;;;;;;7.60;2.97;;;;;;;6.17;100.00;98186.78;5102734;28;20425;-84
2022/02/06 15:17:52;;;;;;;4.10;2.17;;;;;;;6.20;100.00;98168.47;5117283;28;20105;-84
2022/02/06 15:20:36;;;;;;;5.22;2.70;;;;;;;6.13;100.00;98170.44;5101928;28;20414;-84
2022/02/06 15:23:25;;;;;;;8.73;3.90;;;;;;;6.11;100.00;98150.56;5102021;28;20039;-84